Galeville, New York
Current Conditions -  °F | °C
As of 3:54 AM on Wednesday 22 Oct 2014 (Local Time) from KSYR Reporting Station
Broken Clouds Broken Clouds  
Wind Chill:   Ceiling: 3000
Heat Index:   Visibility: 7mi
Dew Point:   Wind: 9mph
Humidity: 93%   Direction: 360°N
Pressure: 30.04"   Gusts: NA
Location:  43.1098°N, 76.1878°W
Report Text: KSYR 220754Z 36008KT 7SM FEW007 SCT014 BKN030 09/07 A3004 RMK BKN V OVC SLP172 T00850074
Loading
Personal Weather Stations






























Interactive Weather Map
Tropical Storm Tracking
New forecast layout! Learn more

10-Day Weather Forecast

Advertisements
Track Severe Weather on mobile